sensor_id;sensor_type;location;lat;lon;timestamp;temperature;humidity
19580;DHT22;9936;51.040;13.918;2023-02-02T00:00:24;2.80;99.90
19580;DHT22;9936;51.040;13.918;2023-02-02T00:04:16;2.90;99.90
19580;DHT22;9936;51.040;13.918;2023-02-02T00:08:02;2.80;99.90
19580;DHT22;9936;51.040;13.918;2023-02-02T00:11:48;2.80;99.90
19580;DHT22;9936;51.040;13.918;2023-02-02T00:15:35;2.80;99.90
19580;DHT22;9936;51.040;13.918;2023-02-02T00:19:24;2.80;99.90
19580;DHT22;9936;51.040;13.918;2023-02-02T00:23:10;2.80;99.90
19580;DHT22;9936;51.040;13.918;2023-02-02T00:26:58;2.70;99.90
19580;DHT22;9936;51.040;13.918;2023-02-02T00:30:44;2.80;99.90
19580;DHT22;9936;51.040;13.918;2023-02-02T00:34:29;2.70;99.90
19580;DHT22;9936;51.040;13.918;2023-02-02T00:38:15;2.70;99.90
19580;DHT22;9936;51.040;13.918;2023-02-02T00:42:01;2.70;99.90
19580;DHT22;9936;51.040;13.918;2023-02-02T00:45:47;2.80;99.90
19580;DHT22;9936;51.040;13.918;2023-02-02T00:49:33;2.70;99.90
19580;DHT22;9936;51.040;13.918;2023-02-02T00:53:19;2.80;99.90
19580;DHT22;9936;51.040;13.918;2023-02-02T00:57:05;2.70;99.90
19580;DHT22;9936;51.040;13.918;2023-02-02T01:00:54;2.90;99.90
19580;DHT22;9936;51.040;13.918;2023-02-02T01:04:39;2.80;99.90
19580;DHT22;9936;51.040;13.918;2023-02-02T01:08:25;2.80;99.90
19580;DHT22;9936;51.040;13.918;2023-02-02T01:12:11;2.80;99.90
19580;DHT22;9936;51.040;13.918;2023-02-02T01:15:58;2.80;99.90
19580;DHT22;9936;51.040;13.918;2023-02-02T01:19:44;2.80;99.90
19580;DHT22;9936;51.040;13.918;2023-02-02T01:23:30;2.80;99.90
19580;DHT22;9936;51.040;13.918;2023-02-02T01:27:17;2.80;99.90
19580;DHT22;9936;51.040;13.918;2023-02-02T01:31:12;2.80;99.90
19580;DHT22;9936;51.040;13.918;2023-02-02T01:34:58;2.80;99.90
19580;DHT22;9936;51.040;13.918;2023-02-02T01:38:43;2.80;99.90
19580;DHT22;9936;51.040;13.918;2023-02-02T01:42:29;2.80;99.90
19580;DHT22;9936;51.040;13.918;2023-02-02T01:46:27;2.80;99.90
19580;DHT22;9936;51.040;13.918;2023-02-02T01:50:15;2.80;99.90
19580;DHT22;9936;51.040;13.918;2023-02-02T01:54:02;2.80;99.90
19580;DHT22;9936;51.040;13.918;2023-02-02T01:57:57;2.80;99.90
19580;DHT22;9936;51.040;13.918;2023-02-02T02:01:46;2.90;99.90
19580;DHT22;9936;51.040;13.918;2023-02-02T02:06:13;3.00;99.90
19580;DHT22;9936;51.040;13.918;2023-02-02T02:09:51;2.90;99.90
19580;DHT22;9936;51.040;13.918;2023-02-02T02:13:38;3.00;99.90
19580;DHT22;9936;51.040;13.918;2023-02-02T02:17:59;2.90;99.90
19580;DHT22;9936;51.040;13.918;2023-02-02T02:22:12;2.90;99.90
19580;DHT22;9936;51.040;13.918;2023-02-02T02:35:07;3.00;99.90
19580;DHT22;9936;51.040;13.918;2023-02-02T02:39:14;2.90;99.90
19580;DHT22;9936;51.040;13.918;2023-02-02T02:43:05;3.00;99.90
19580;DHT22;9936;51.040;13.918;2023-02-02T02:46:52;3.00;99.90
19580;DHT22;9936;51.040;13.918;2023-02-02T02:50:38;3.00;99.90
19580;DHT22;9936;51.040;13.918;2023-02-02T02:54:30;2.90;99.90
19580;DHT22;9936;51.040;13.918;2023-02-02T02:58:42;3.00;99.90
19580;DHT22;9936;51.040;13.918;2023-02-02T03:06:59;3.00;99.90
19580;DHT22;9936;51.040;13.918;2023-02-02T03:10:46;3.00;99.90
19580;DHT22;9936;51.040;13.918;2023-02-02T03:14:36;3.00;99.90
19580;DHT22;9936;51.040;13.918;2023-02-02T03:18:24;3.00;99.90
19580;DHT22;9936;51.040;13.918;2023-02-02T03:22:11;3.00;99.90
19580;DHT22;9936;51.040;13.918;2023-02-02T03:25:57;3.00;99.90
19580;DHT22;9936;51.040;13.918;2023-02-02T03:29:44;3.00;99.90
19580;DHT22;9936;51.040;13.918;2023-02-02T03:33:31;3.10;99.90
19580;DHT22;9936;51.040;13.918;2023-02-02T03:37:17;3.00;99.90
19580;DHT22;9936;51.040;13.918;2023-02-02T03:41:04;3.10;99.90
19580;DHT22;9936;51.040;13.918;2023-02-02T03:44:50;3.10;99.90
19580;DHT22;9936;51.040;13.918;2023-02-02T03:48:36;3.10;99.90
19580;DHT22;9936;51.040;13.918;2023-02-02T03:52:23;3.10;99.90
19580;DHT22;9936;51.040;13.918;2023-02-02T03:56:09;3.00;99.90
19580;DHT22;9936;51.040;13.918;2023-02-02T03:59:54;3.10;99.90
19580;DHT22;9936;51.040;13.918;2023-02-02T04:03:40;3.10;99.90
19580;DHT22;9936;51.040;13.918;2023-02-02T04:07:26;3.10;99.90
19580;DHT22;9936;51.040;13.918;2023-02-02T04:11:12;3.10;99.90
19580;DHT22;9936;51.040;13.918;2023-02-02T04:14:57;3.30;99.90
19580;DHT22;9936;51.040;13.918;2023-02-02T04:18:43;3.20;99.90
19580;DHT22;9936;51.040;13.918;2023-02-02T04:22:29;3.10;99.90
19580;DHT22;9936;51.040;13.918;2023-02-02T04:26:14;3.20;99.90
19580;DHT22;9936;51.040;13.918;2023-02-02T04:30:00;3.10;99.90
19580;DHT22;9936;51.040;13.918;2023-02-02T04:33:46;3.10;99.90
19580;DHT22;9936;51.040;13.918;2023-02-02T04:37:32;3.20;99.90
19580;DHT22;9936;51.040;13.918;2023-02-02T04:41:18;3.00;99.90
19580;DHT22;9936;51.040;13.918;2023-02-02T04:45:04;3.10;99.90
19580;DHT22;9936;51.040;13.918;2023-02-02T04:48:49;3.10;99.90
19580;DHT22;9936;51.040;13.918;2023-02-02T04:52:35;3.10;99.90
19580;DHT22;9936;51.040;13.918;2023-02-02T04:56:21;3.10;99.90
19580;DHT22;9936;51.040;13.918;2023-02-02T05:00:07;3.10;99.90
19580;DHT22;9936;51.040;13.918;2023-02-02T05:03:56;3.10;99.90
19580;DHT22;9936;51.040;13.918;2023-02-02T05:07:41;3.00;99.90
19580;DHT22;9936;51.040;13.918;2023-02-02T05:11:27;3.10;99.90
19580;DHT22;9936;51.040;13.918;2023-02-02T05:15:13;3.10;99.90
19580;DHT22;9936;51.040;13.918;2023-02-02T05:18:58;3.10;99.90
19580;DHT22;9936;51.040;13.918;2023-02-02T05:22:47;3.10;99.90
19580;DHT22;9936;51.040;13.918;2023-02-02T05:26:34;3.10;99.90
19580;DHT22;9936;51.040;13.918;2023-02-02T05:30:19;3.10;99.90
19580;DHT22;9936;51.040;13.918;2023-02-02T05:34:05;3.10;99.90
19580;DHT22;9936;51.040;13.918;2023-02-02T05:37:51;3.10;99.90
19580;DHT22;9936;51.040;13.918;2023-02-02T05:41:37;3.40;99.90
19580;DHT22;9936;51.040;13.918;2023-02-02T05:45:22;3.10;99.90
19580;DHT22;9936;51.040;13.918;2023-02-02T05:49:12;3.00;99.90
19580;DHT22;9936;51.040;13.918;2023-02-02T05:52:58;3.20;99.90
19580;DHT22;9936;51.040;13.918;2023-02-02T05:56:45;3.10;99.90
19580;DHT22;9936;51.040;13.918;2023-02-02T06:00:31;3.10;99.90
19580;DHT22;9936;51.040;13.918;2023-02-02T06:04:17;3.10;99.90
19580;DHT22;9936;51.040;13.918;2023-02-02T06:08:03;3.10;99.90
19580;DHT22;9936;51.040;13.918;2023-02-02T06:11:48;3.10;99.90
19580;DHT22;9936;51.040;13.918;2023-02-02T06:15:34;3.10;99.90
19580;DHT22;9936;51.040;13.918;2023-02-02T06:19:20;3.10;99.90
19580;DHT22;9936;51.040;13.918;2023-02-02T06:23:07;3.10;99.90
19580;DHT22;9936;51.040;13.918;2023-02-02T06:26:52;3.00;99.90
19580;DHT22;9936;51.040;13.918;2023-02-02T06:30:38;3.10;99.90
19580;DHT22;9936;51.040;13.918;2023-02-02T06:34:23;3.00;99.90
19580;DHT22;9936;51.040;13.918;2023-02-02T06:38:09;3.00;99.90
19580;DHT22;9936;51.040;13.918;2023-02-02T06:41:55;2.90;99.90
19580;DHT22;9936;51.040;13.918;2023-02-02T06:45:41;2.90;99.90
19580;DHT22;9936;51.040;13.918;2023-02-02T06:49:26;3.00;99.90
19580;DHT22;9936;51.040;13.918;2023-02-02T06:53:12;2.90;99.90
19580;DHT22;9936;51.040;13.918;2023-02-02T06:56:58;2.90;99.90
19580;DHT22;9936;51.040;13.918;2023-02-02T07:00:43;2.90;99.90
19580;DHT22;9936;51.040;13.918;2023-02-02T07:04:29;2.90;99.90
19580;DHT22;9936;51.040;13.918;2023-02-02T07:08:15;2.90;99.90
19580;DHT22;9936;51.040;13.918;2023-02-02T07:12:01;2.90;99.90
19580;DHT22;9936;51.040;13.918;2023-02-02T07:15:46;2.90;99.90
19580;DHT22;9936;51.040;13.918;2023-02-02T07:19:33;3.00;99.90
19580;DHT22;9936;51.040;13.918;2023-02-02T07:23:18;3.00;99.90
19580;DHT22;9936;51.040;13.918;2023-02-02T07:27:04;3.00;99.90
19580;DHT22;9936;51.040;13.918;2023-02-02T07:30:50;2.90;99.90
19580;DHT22;9936;51.040;13.918;2023-02-02T07:34:39;3.00;99.90
19580;DHT22;9936;51.040;13.918;2023-02-02T07:38:26;3.00;99.90
19580;DHT22;9936;51.040;13.918;2023-02-02T07:42:12;3.10;99.90
19580;DHT22;9936;51.040;13.918;2023-02-02T07:46:03;3.00;99.90
19580;DHT22;9936;51.040;13.918;2023-02-02T07:49:49;3.10;99.90
19580;DHT22;9936;51.040;13.918;2023-02-02T07:53:34;3.10;99.90
19580;DHT22;9936;51.040;13.918;2023-02-02T07:57:20;3.00;99.90
19580;DHT22;9936;51.040;13.918;2023-02-02T08:01:08;3.00;99.90
19580;DHT22;9936;51.040;13.918;2023-02-02T08:04:53;2.90;99.90
19580;DHT22;9936;51.040;13.918;2023-02-02T08:08:39;2.90;99.90
19580;DHT22;9936;51.040;13.918;2023-02-02T08:12:25;3.00;99.90
19580;DHT22;9936;51.040;13.918;2023-02-02T08:16:11;3.00;99.90
19580;DHT22;9936;51.040;13.918;2023-02-02T08:19:57;3.00;99.90
19580;DHT22;9936;51.040;13.918;2023-02-02T08:23:43;3.00;99.90
19580;DHT22;9936;51.040;13.918;2023-02-02T08:27:30;3.10;99.90
19580;DHT22;9936;51.040;13.918;2023-02-02T08:31:17;3.20;99.90
19580;DHT22;9936;51.040;13.918;2023-02-02T08:35:03;3.10;99.90
19580;DHT22;9936;51.040;13.918;2023-02-02T08:38:49;3.10;99.90
19580;DHT22;9936;51.040;13.918;2023-02-02T08:42:35;3.20;99.90
19580;DHT22;9936;51.040;13.918;2023-02-02T08:46:21;3.20;99.90
19580;DHT22;9936;51.040;13.918;2023-02-02T08:50:07;3.20;99.90
19580;DHT22;9936;51.040;13.918;2023-02-02T08:53:53;3.20;99.90
19580;DHT22;9936;51.040;13.918;2023-02-02T08:57:38;3.20;99.90
19580;DHT22;9936;51.040;13.918;2023-02-02T09:01:25;3.20;99.90
19580;DHT22;9936;51.040;13.918;2023-02-02T09:05:11;3.20;99.90
19580;DHT22;9936;51.040;13.918;2023-02-02T09:08:57;3.30;99.90
19580;DHT22;9936;51.040;13.918;2023-02-02T09:12:42;3.30;99.90
19580;DHT22;9936;51.040;13.918;2023-02-02T09:16:28;3.20;99.90
19580;DHT22;9936;51.040;13.918;2023-02-02T09:20:14;3.20;99.90
19580;DHT22;9936;51.040;13.918;2023-02-02T09:24:00;3.20;99.90
19580;DHT22;9936;51.040;13.918;2023-02-02T09:27:45;3.20;99.90
19580;DHT22;9936;51.040;13.918;2023-02-02T09:31:36;3.20;99.90
19580;DHT22;9936;51.040;13.918;2023-02-02T09:35:21;3.20;99.90
19580;DHT22;9936;51.040;13.918;2023-02-02T09:39:08;3.20;99.90
19580;DHT22;9936;51.040;13.918;2023-02-02T09:43:27;3.30;99.90
19580;DHT22;9936;51.040;13.918;2023-02-02T09:51:31;3.20;99.90
19580;DHT22;9936;51.040;13.918;2023-02-02T09:55:40;3.20;99.90
19580;DHT22;9936;51.040;13.918;2023-02-02T09:59:33;3.20;99.90
19580;DHT22;9936;51.040;13.918;2023-02-02T10:03:38;3.20;99.90
19580;DHT22;9936;51.040;13.918;2023-02-02T10:07:36;3.20;99.90
19580;DHT22;9936;51.040;13.918;2023-02-02T10:11:44;3.30;99.90
19580;DHT22;9936;51.040;13.918;2023-02-02T10:15:57;3.30;99.90
19580;DHT22;9936;51.040;13.918;2023-02-02T10:19:44;3.30;99.90
19580;DHT22;9936;51.040;13.918;2023-02-02T10:23:36;3.30;99.90
19580;DHT22;9936;51.040;13.918;2023-02-02T10:28:05;3.40;99.90
19580;DHT22;9936;51.040;13.918;2023-02-02T10:36:22;3.40;99.90
19580;DHT22;9936;51.040;13.918;2023-02-02T10:44:20;3.40;99.90
19580;DHT22;9936;51.040;13.918;2023-02-02T10:48:18;3.50;99.90
19580;DHT22;9936;51.040;13.918;2023-02-02T10:52:16;3.40;99.90
19580;DHT22;9936;51.040;13.918;2023-02-02T10:56:07;3.40;99.90
19580;DHT22;9936;51.040;13.918;2023-02-02T11:04:05;3.40;99.90
19580;DHT22;9936;51.040;13.918;2023-02-02T11:08:18;3.50;99.90
19580;DHT22;9936;51.040;13.918;2023-02-02T11:12:15;3.50;99.90
19580;DHT22;9936;51.040;13.918;2023-02-02T11:20:00;3.20;99.90
19580;DHT22;9936;51.040;13.918;2023-02-02T11:23:53;3.40;99.90
19580;DHT22;9936;51.040;13.918;2023-02-02T11:27:41;3.30;99.90
19580;DHT22;9936;51.040;13.918;2023-02-02T11:31:31;3.30;99.90
19580;DHT22;9936;51.040;13.918;2023-02-02T11:35:35;3.40;99.90
19580;DHT22;9936;51.040;13.918;2023-02-02T11:39:23;3.40;99.90
19580;DHT22;9936;51.040;13.918;2023-02-02T11:43:25;3.40;99.90
19580;DHT22;9936;51.040;13.918;2023-02-02T11:47:18;3.50;99.90
19580;DHT22;9936;51.040;13.918;2023-02-02T11:51:05;3.40;99.90
19580;DHT22;9936;51.040;13.918;2023-02-02T11:54:54;3.40;99.90
19580;DHT22;9936;51.040;13.918;2023-02-02T11:58:50;3.50;99.90
19580;DHT22;9936;51.040;13.918;2023-02-02T12:02:47;3.50;99.90
19580;DHT22;9936;51.040;13.918;2023-02-02T12:06:37;3.40;99.90
19580;DHT22;9936;51.040;13.918;2023-02-02T12:10:27;3.50;99.90
19580;DHT22;9936;51.040;13.918;2023-02-02T12:27:06;3.70;99.90
19580;DHT22;9936;51.040;13.918;2023-02-02T12:35:59;3.70;99.90
19580;DHT22;9936;51.040;13.918;2023-02-02T12:40:19;3.70;99.90
19580;DHT22;9936;51.040;13.918;2023-02-02T12:44:36;3.70;99.90
19580;DHT22;9936;51.040;13.918;2023-02-02T12:52:51;3.80;99.90
19580;DHT22;9936;51.040;13.918;2023-02-02T12:57:00;3.80;99.90
19580;DHT22;9936;51.040;13.918;2023-02-02T13:01:41;3.90;99.90
19580;DHT22;9936;51.040;13.918;2023-02-02T13:13:52;4.00;99.90
19580;DHT22;9936;51.040;13.918;2023-02-02T13:18:02;4.10;99.90
19580;DHT22;9936;51.040;13.918;2023-02-02T13:21:58;4.10;99.90
19580;DHT22;9936;51.040;13.918;2023-02-02T13:26:05;4.10;99.90
19580;DHT22;9936;51.040;13.918;2023-02-02T13:29:54;4.10;99.90
19580;DHT22;9936;51.040;13.918;2023-02-02T13:33:44;4.10;99.90
19580;DHT22;9936;51.040;13.918;2023-02-02T13:41:46;4.10;99.90
19580;DHT22;9936;51.040;13.918;2023-02-02T13:49:47;4.10;99.90
19580;DHT22;9936;51.040;13.918;2023-02-02T14:01:50;4.10;99.90
19580;DHT22;9936;51.040;13.918;2023-02-02T14:05:39;4.20;99.90
19580;DHT22;9936;51.040;13.918;2023-02-02T14:09:27;4.00;99.90
19580;DHT22;9936;51.040;13.918;2023-02-02T14:13:23;4.10;99.90
19580;DHT22;9936;51.040;13.918;2023-02-02T14:41:17;4.00;99.90
19580;DHT22;9936;51.040;13.918;2023-02-02T14:49:11;4.10;99.90
19580;DHT22;9936;51.040;13.918;2023-02-02T14:53:31;4.30;99.90
19580;DHT22;9936;51.040;13.918;2023-02-02T14:57:24;4.10;99.90
19580;DHT22;9936;51.040;13.918;2023-02-02T15:13:13;4.10;99.90
19580;DHT22;9936;51.040;13.918;2023-02-02T15:21:35;4.10;99.90
19580;DHT22;9936;51.040;13.918;2023-02-02T15:29:47;4.00;99.90
19580;DHT22;9936;51.040;13.918;2023-02-02T15:33:39;4.10;99.90
19580;DHT22;9936;51.040;13.918;2023-02-02T15:37:30;4.00;99.90
19580;DHT22;9936;51.040;13.918;2023-02-02T15:41:44;4.00;99.90
19580;DHT22;9936;51.040;13.918;2023-02-02T15:45:36;4.00;99.90
19580;DHT22;9936;51.040;13.918;2023-02-02T15:49:30;4.00;99.90
19580;DHT22;9936;51.040;13.918;2023-02-02T15:53:19;4.00;99.90
19580;DHT22;9936;51.040;13.918;2023-02-02T15:57:29;4.00;99.90
19580;DHT22;9936;51.040;13.918;2023-02-02T16:01:17;3.80;99.90
19580;DHT22;9936;51.040;13.918;2023-02-02T16:05:37;3.70;99.90
19580;DHT22;9936;51.040;13.918;2023-02-02T16:09:26;3.60;99.90
19580;DHT22;9936;51.040;13.918;2023-02-02T16:13:24;3.60;99.90
19580;DHT22;9936;51.040;13.918;2023-02-02T16:17:31;3.60;99.90
19580;DHT22;9936;51.040;13.918;2023-02-02T16:21:22;3.60;99.90
19580;DHT22;9936;51.040;13.918;2023-02-02T16:25:14;3.60;99.90
19580;DHT22;9936;51.040;13.918;2023-02-02T16:29:00;3.50;99.90
19580;DHT22;9936;51.040;13.918;2023-02-02T16:32:46;3.40;99.90
19580;DHT22;9936;51.040;13.918;2023-02-02T16:36:35;3.30;99.90
19580;DHT22;9936;51.040;13.918;2023-02-02T16:40:26;3.50;99.90
19580;DHT22;9936;51.040;13.918;2023-02-02T16:48:36;3.40;99.90
19580;DHT22;9936;51.040;13.918;2023-02-02T16:52:22;3.30;99.90
19580;DHT22;9936;51.040;13.918;2023-02-02T16:56:08;3.40;99.90
19580;DHT22;9936;51.040;13.918;2023-02-02T16:59:57;3.30;99.90
19580;DHT22;9936;51.040;13.918;2023-02-02T17:03:50;3.30;99.90
19580;DHT22;9936;51.040;13.918;2023-02-02T17:07:37;3.30;99.90
19580;DHT22;9936;51.040;13.918;2023-02-02T17:11:26;3.30;99.90
19580;DHT22;9936;51.040;13.918;2023-02-02T17:19:03;3.30;99.90
19580;DHT22;9936;51.040;13.918;2023-02-02T17:22:58;3.30;99.90
19580;DHT22;9936;51.040;13.918;2023-02-02T17:26:45;3.30;99.90
19580;DHT22;9936;51.040;13.918;2023-02-02T17:30:32;3.30;99.90
19580;DHT22;9936;51.040;13.918;2023-02-02T17:34:18;3.30;99.90
19580;DHT22;9936;51.040;13.918;2023-02-02T17:38:03;3.20;99.90
19580;DHT22;9936;51.040;13.918;2023-02-02T17:41:49;3.30;99.90
19580;DHT22;9936;51.040;13.918;2023-02-02T17:45:36;3.30;99.90
19580;DHT22;9936;51.040;13.918;2023-02-02T17:49:22;3.20;99.90
19580;DHT22;9936;51.040;13.918;2023-02-02T17:53:14;3.20;99.90
19580;DHT22;9936;51.040;13.918;2023-02-02T17:57:00;3.20;99.90
19580;DHT22;9936;51.040;13.918;2023-02-02T18:00:49;3.20;99.90
19580;DHT22;9936;51.040;13.918;2023-02-02T18:04:36;3.10;99.90
19580;DHT22;9936;51.040;13.918;2023-02-02T18:08:22;3.10;99.90
19580;DHT22;9936;51.040;13.918;2023-02-02T18:12:08;3.10;99.90
19580;DHT22;9936;51.040;13.918;2023-02-02T18:15:53;3.20;99.90
19580;DHT22;9936;51.040;13.918;2023-02-02T18:19:40;3.10;99.90
19580;DHT22;9936;51.040;13.918;2023-02-02T18:23:33;3.10;99.90
19580;DHT22;9936;51.040;13.918;2023-02-02T18:27:19;3.20;99.90
19580;DHT22;9936;51.040;13.918;2023-02-02T18:31:12;3.20;99.90
19580;DHT22;9936;51.040;13.918;2023-02-02T18:34:58;3.30;99.90
19580;DHT22;9936;51.040;13.918;2023-02-02T18:38:45;3.20;99.90
19580;DHT22;9936;51.040;13.918;2023-02-02T18:42:31;3.20;99.90
19580;DHT22;9936;51.040;13.918;2023-02-02T18:46:17;3.20;99.90
19580;DHT22;9936;51.040;13.918;2023-02-02T18:50:03;3.20;99.90
19580;DHT22;9936;51.040;13.918;2023-02-02T18:53:49;3.20;99.90
19580;DHT22;9936;51.040;13.918;2023-02-02T18:57:35;3.20;99.90
19580;DHT22;9936;51.040;13.918;2023-02-02T19:01:21;3.20;99.90
19580;DHT22;9936;51.040;13.918;2023-02-02T19:05:07;3.20;99.90
19580;DHT22;9936;51.040;13.918;2023-02-02T19:09:12;3.20;99.90
19580;DHT22;9936;51.040;13.918;2023-02-02T19:16:49;3.20;99.90
19580;DHT22;9936;51.040;13.918;2023-02-02T19:20:36;3.20;99.90
19580;DHT22;9936;51.040;13.918;2023-02-02T19:24:30;3.20;99.90
19580;DHT22;9936;51.040;13.918;2023-02-02T19:28:21;3.30;99.90
19580;DHT22;9936;51.040;13.918;2023-02-02T19:32:12;3.70;99.90
19580;DHT22;9936;51.040;13.918;2023-02-02T19:35:59;3.80;99.90
19580;DHT22;9936;51.040;13.918;2023-02-02T19:39:44;4.00;99.90
19580;DHT22;9936;51.040;13.918;2023-02-02T19:43:31;4.10;99.90
19580;DHT22;9936;51.040;13.918;2023-02-02T19:47:36;4.20;99.90
19580;DHT22;9936;51.040;13.918;2023-02-02T19:51:42;4.10;99.90
19580;DHT22;9936;51.040;13.918;2023-02-02T19:55:34;4.20;99.90
19580;DHT22;9936;51.040;13.918;2023-02-02T19:59:20;4.30;99.90
19580;DHT22;9936;51.040;13.918;2023-02-02T20:03:18;4.30;99.90
19580;DHT22;9936;51.040;13.918;2023-02-02T20:07:11;4.10;99.90
19580;DHT22;9936;51.040;13.918;2023-02-02T20:10:58;4.00;99.90
19580;DHT22;9936;51.040;13.918;2023-02-02T20:14:47;4.00;99.90
19580;DHT22;9936;51.040;13.918;2023-02-02T20:18:41;3.90;99.90
19580;DHT22;9936;51.040;13.918;2023-02-02T20:22:28;3.90;99.90
19580;DHT22;9936;51.040;13.918;2023-02-02T20:30:22;4.00;99.90
19580;DHT22;9936;51.040;13.918;2023-02-02T20:38:28;4.00;99.90
19580;DHT22;9936;51.040;13.918;2023-02-02T20:42:19;4.00;99.90
19580;DHT22;9936;51.040;13.918;2023-02-02T20:46:04;3.90;99.90
19580;DHT22;9936;51.040;13.918;2023-02-02T20:49:50;3.90;99.90
19580;DHT22;9936;51.040;13.918;2023-02-02T20:53:36;3.90;99.90
19580;DHT22;9936;51.040;13.918;2023-02-02T20:57:23;3.70;99.90
19580;DHT22;9936;51.040;13.918;2023-02-02T21:01:09;3.70;99.90
19580;DHT22;9936;51.040;13.918;2023-02-02T21:04:54;3.60;99.90
19580;DHT22;9936;51.040;13.918;2023-02-02T21:08:40;3.50;99.90
19580;DHT22;9936;51.040;13.918;2023-02-02T21:12:26;3.50;99.90
19580;DHT22;9936;51.040;13.918;2023-02-02T21:16:12;3.50;99.90
19580;DHT22;9936;51.040;13.918;2023-02-02T21:19:57;3.50;99.90
19580;DHT22;9936;51.040;13.918;2023-02-02T21:23:44;3.50;99.90
19580;DHT22;9936;51.040;13.918;2023-02-02T21:27:32;3.50;99.90
19580;DHT22;9936;51.040;13.918;2023-02-02T21:31:18;3.60;99.90
19580;DHT22;9936;51.040;13.918;2023-02-02T21:35:05;3.50;99.90
19580;DHT22;9936;51.040;13.918;2023-02-02T21:38:51;3.50;99.90
19580;DHT22;9936;51.040;13.918;2023-02-02T21:42:37;3.50;99.90
19580;DHT22;9936;51.040;13.918;2023-02-02T21:46:28;3.50;99.90
19580;DHT22;9936;51.040;13.918;2023-02-02T21:50:25;3.40;99.90
19580;DHT22;9936;51.040;13.918;2023-02-02T21:54:24;3.40;99.90
19580;DHT22;9936;51.040;13.918;2023-02-02T22:10:28;3.20;99.90
19580;DHT22;9936;51.040;13.918;2023-02-02T22:18:19;3.10;99.90
19580;DHT22;9936;51.040;13.918;2023-02-02T22:22:23;3.10;99.90
19580;DHT22;9936;51.040;13.918;2023-02-02T22:26:30;3.00;99.90
19580;DHT22;9936;51.040;13.918;2023-02-02T22:34:14;2.90;99.90
19580;DHT22;9936;51.040;13.918;2023-02-02T22:37:59;2.90;99.90
19580;DHT22;9936;51.040;13.918;2023-02-02T22:41:45;2.80;99.90
19580;DHT22;9936;51.040;13.918;2023-02-02T22:45:31;2.80;99.90
19580;DHT22;9936;51.040;13.918;2023-02-02T22:49:16;2.80;99.90
19580;DHT22;9936;51.040;13.918;2023-02-02T22:53:03;2.80;99.90
19580;DHT22;9936;51.040;13.918;2023-02-02T22:56:49;2.80;99.90
19580;DHT22;9936;51.040;13.918;2023-02-02T23:00:35;2.80;99.90
19580;DHT22;9936;51.040;13.918;2023-02-02T23:04:21;2.70;99.90
19580;DHT22;9936;51.040;13.918;2023-02-02T23:08:07;2.70;99.90
19580;DHT22;9936;51.040;13.918;2023-02-02T23:11:53;2.80;99.90
19580;DHT22;9936;51.040;13.918;2023-02-02T23:15:38;2.80;99.90
19580;DHT22;9936;51.040;13.918;2023-02-02T23:19:24;2.90;99.90
19580;DHT22;9936;51.040;13.918;2023-02-02T23:23:10;2.90;99.90
19580;DHT22;9936;51.040;13.918;2023-02-02T23:26:55;2.90;99.90
19580;DHT22;9936;51.040;13.918;2023-02-02T23:30:41;2.90;99.90
19580;DHT22;9936;51.040;13.918;2023-02-02T23:34:26;2.80;99.90
19580;DHT22;9936;51.040;13.918;2023-02-02T23:38:12;2.90;99.90
19580;DHT22;9936;51.040;13.918;2023-02-02T23:41:58;2.90;99.90
19580;DHT22;9936;51.040;13.918;2023-02-02T23:45:43;2.90;99.90
19580;DHT22;9936;51.040;13.918;2023-02-02T23:49:30;2.90;99.90
19580;DHT22;9936;51.040;13.918;2023-02-02T23:53:16;3.00;99.90
19580;DHT22;9936;51.040;13.918;2023-02-02T23:57:02;3.10;99.90
